Time;durP1;ratioP1;P1;durP2;ratioP2;P2;SDS_P1;SDS_P2;PMS_P1;PMS_P2;Temp;Humidity;BMP_temperature;BMP_pressure;BME280_temperature;BME280_humidity;BME280_pressure;Samples;Min_cycle;Max_cycle;Signal;HPM_P1;HPM_P2
2023/07/19 00:02:24;;;;;;;8.85;5.90;;;;;;;24.84;66.80;95339.31;5019740;28;20228;-72
2023/07/19 00:04:49;;;;;;;9.73;6.22;;;;;;;24.61;67.80;95335.41;5008520;28;20994;-73
2023/07/19 00:07:15;;;;;;;8.15;5.70;;;;;;;24.43;67.93;95332.56;5037790;28;20282;-72
2023/07/19 00:09:40;;;;;;;11.15;6.10;;;;;;;24.70;66.99;95338.28;5010841;28;20319;-72
2023/07/19 00:12:06;;;;;;;10.23;6.10;;;;;;;24.67;66.74;95334.28;5031494;28;20229;-72
2023/07/19 00:14:32;;;;;;;13.00;6.30;;;;;;;24.68;67.24;95337.78;5026749;28;20913;-72
2023/07/19 00:16:57;;;;;;;10.75;6.50;;;;;;;24.52;67.49;95331.72;5049026;28;20252;-72
2023/07/19 00:19:23;;;;;;;9.65;6.15;;;;;;;24.63;66.74;95338.59;5026277;28;20238;-72
2023/07/19 00:21:48;;;;;;;12.40;6.40;;;;;;;24.45;67.86;95331.22;5022140;28;20228;-72
2023/07/19 00:24:14;;;;;;;9.73;6.43;;;;;;;24.48;67.78;95324.53;5010722;28;20236;-73
2023/07/19 00:26:49;;;;;;;11.63;6.55;;;;;;;24.36;68.63;95329.41;5012926;28;20729;-74
2023/07/19 00:29:14;;;;;;;13.52;6.85;;;;;;;24.46;68.13;95327.47;4992491;28;20265;-72
2023/07/19 00:31:40;;;;;;;10.50;6.88;;;;;;;24.02;69.52;95337.28;5021022;28;20742;-72
2023/07/19 00:34:05;;;;;;;10.48;6.55;;;;;;;24.13;69.45;95332.69;5049818;28;20225;-72
2023/07/19 00:36:31;;;;;;;10.32;6.53;;;;;;;24.17;69.79;95342.56;5029904;28;20242;-72
2023/07/19 00:38:56;;;;;;;11.63;6.75;;;;;;;24.05;69.92;95334.84;5007754;28;20237;-72
2023/07/19 00:41:22;;;;;;;13.05;6.88;;;;;;;24.16;69.85;95338.31;5025094;28;20776;-72
2023/07/19 00:43:48;;;;;;;10.63;6.57;;;;;;;24.15;69.39;95339.38;4994445;28;20746;-72
2023/07/19 00:46:13;;;;;;;14.88;6.60;;;;;;;24.04;69.97;95340.47;5015151;28;20307;-72
2023/07/19 00:48:39;;;;;;;10.27;6.82;;;;;;;24.05;70.15;95342.06;5013692;28;20229;-72
2023/07/19 00:51:04;;;;;;;12.85;7.35;;;;;;;24.04;70.06;95338.59;5015811;28;20229;-73
2023/07/19 00:53:30;;;;;;;11.35;6.95;;;;;;;23.83;71.55;95342.41;5017909;28;20256;-73
2023/07/19 00:55:56;;;;;;;13.18;7.03;;;;;;;23.70;72.09;95336.81;5011264;28;20222;-73
2023/07/19 00:58:22;;;;;;;11.85;7.07;;;;;;;23.71;72.55;95328.53;5029185;28;20240;-73
2023/07/19 01:00:48;;;;;;;12.85;7.18;;;;;;;23.70;72.47;95337.63;4996212;28;20222;-73
2023/07/19 01:03:13;;;;;;;12.10;7.13;;;;;;;23.65;72.65;95342.16;5054736;28;20764;-73
2023/07/19 01:05:39;;;;;;;12.95;7.35;;;;;;;23.52;73.11;95335.53;5034044;28;20251;-72
2023/07/19 01:08:05;;;;;;;11.32;7.60;;;;;;;23.59;73.01;95333.38;5052463;28;20302;-73
2023/07/19 01:10:31;;;;;;;11.18;6.82;;;;;;;23.56;73.17;95333.91;5015948;28;20241;-73
2023/07/19 01:13:02;;;;;;;17.58;7.28;;;;;;;23.64;73.26;95332.56;5013055;28;20228;-72
2023/07/19 01:15:28;;;;;;;15.05;7.07;;;;;;;23.57;73.66;95335.53;5052530;28;20233;-73
2023/07/19 01:17:53;;;;;;;13.63;7.22;;;;;;;23.53;73.59;95317.59;5016170;28;20742;-73
2023/07/19 01:20:19;;;;;;;10.70;7.10;;;;;;;23.56;73.84;95320.56;5009169;28;20254;-73
2023/07/19 01:22:46;;;;;;;13.20;7.13;;;;;;;23.63;73.71;95323.75;4995859;28;20245;-73
2023/07/19 01:25:12;;;;;;;11.73;7.10;;;;;;;23.43;74.42;95326.44;5001955;28;20230;-73
2023/07/19 01:27:38;;;;;;;11.13;7.15;;;;;;;23.48;74.38;95323.75;4982303;28;20309;-72
2023/07/19 01:30:03;;;;;;;10.18;6.82;;;;;;;23.38;74.84;95327.25;4996917;28;20230;-71
2023/07/19 01:32:29;;;;;;;11.52;7.20;;;;;;;23.42;74.90;95324.84;5009739;28;20239;-71
2023/07/19 01:34:55;;;;;;;11.07;6.95;;;;;;;23.31;75.08;95324.00;4971217;28;20308;-72
2023/07/19 01:37:20;;;;;;;10.70;6.97;;;;;;;23.32;75.03;95316.81;4995408;28;20230;-71
2023/07/19 01:39:46;;;;;;;12.50;7.47;;;;;;;23.43;74.79;95315.75;5012545;28;20235;-72
2023/07/19 01:42:12;;;;;;;12.20;7.10;;;;;;;23.51;74.79;95315.22;4995035;28;20711;-72
2023/07/19 01:44:37;;;;;;;9.80;7.18;;;;;;;23.43;74.91;95324.56;4991162;28;20218;-73
2023/07/19 01:47:03;;;;;;;14.60;6.95;;;;;;;23.46;74.93;95325.91;5023212;28;20238;-72
2023/07/19 01:49:28;;;;;;;12.13;7.40;;;;;;;23.31;75.62;95320.53;4988634;28;20261;-72
2023/07/19 01:51:54;;;;;;;12.63;6.85;;;;;;;23.22;76.12;95332.84;5004635;28;20265;-72
2023/07/19 01:54:19;;;;;;;11.52;7.20;;;;;;;23.31;75.81;95326.69;4975058;28;20273;-72
2023/07/19 01:56:45;;;;;;;10.05;7.00;;;;;;;23.12;76.31;95322.97;5007343;28;20228;-72
2023/07/19 01:59:11;;;;;;;12.20;7.13;;;;;;;23.07;77.10;95324.84;4996833;28;20242;-72
2023/07/19 02:01:36;;;;;;;10.07;7.03;;;;;;;22.99;77.45;95330.72;5011464;28;20301;-72
2023/07/19 02:04:02;;;;;;;10.05;7.07;;;;;;;22.80;78.50;95346.44;4991273;28;20246;-71
2023/07/19 02:06:27;;;;;;;14.13;7.15;;;;;;;23.06;77.17;95333.91;4996631;28;20230;-72
2023/07/19 02:08:53;;;;;;;10.80;6.88;;;;;;;23.10;76.58;95334.97;4998386;28;20299;-72
2023/07/19 02:11:18;;;;;;;13.13;7.28;;;;;;;23.04;76.76;95322.72;5008012;28;20227;-71
2023/07/19 02:13:44;;;;;;;10.13;6.93;;;;;;;23.08;76.55;95316.56;5005225;28;20240;-71
2023/07/19 02:16:09;;;;;;;11.60;7.10;;;;;;;23.11;76.61;95301.88;5008504;28;21231;-72
2023/07/19 02:18:35;;;;;;;10.65;7.18;;;;;;;23.07;76.85;95308.81;5008513;28;20533;-72
2023/07/19 02:21:00;;;;;;;12.35;7.18;;;;;;;22.82;78.00;95304.28;4971220;28;20292;-72
2023/07/19 02:23:26;;;;;;;10.98;7.10;;;;;;;22.82;77.72;95301.59;5006109;28;20222;-73
2023/07/19 02:25:51;;;;;;;13.02;7.35;;;;;;;22.79;77.89;95296.78;5025519;28;20283;-72
2023/07/19 02:28:17;;;;;;;12.50;7.57;;;;;;;22.70;78.34;95299.19;5006539;28;20230;-72
2023/07/19 02:30:46;;;;;;;15.02;6.90;;;;;;;22.75;77.75;95301.88;4989080;28;20301;-75
2023/07/19 02:33:12;;;;;;;11.88;6.80;;;;;;;22.84;77.32;95299.47;4993177;28;20321;-73
2023/07/19 02:35:37;;;;;;;11.40;7.20;;;;;;;22.63;76.64;95289.84;5024925;28;20786;-73
2023/07/19 02:38:03;;;;;;;13.40;7.30;;;;;;;22.65;77.20;95293.03;5014461;28;20227;-72
2023/07/19 02:40:29;;;;;;;14.77;7.35;;;;;;;22.60;77.77;95298.34;5014523;28;20246;-73
2023/07/19 02:42:54;;;;;;;12.43;7.05;;;;;;;22.86;75.61;95289.31;5010624;28;20759;-73
2023/07/19 02:45:20;;;;;;;12.23;7.00;;;;;;;22.47;77.14;95301.53;5004172;28;20234;-72
2023/07/19 02:47:45;;;;;;;12.57;7.22;;;;;;;22.66;76.83;95302.66;5025286;28;20218;-72
2023/07/19 02:50:11;;;;;;;14.45;6.80;;;;;;;22.66;76.72;95292.75;4996593;28;20237;-73
2023/07/19 02:52:37;;;;;;;12.23;7.10;;;;;;;22.86;76.28;95294.66;4972704;28;20616;-73
2023/07/19 02:55:05;;;;;;;12.50;7.10;;;;;;;22.88;75.53;95289.84;5002303;28;20246;-73
2023/07/19 02:57:31;;;;;;;8.70;6.70;;;;;;;22.75;75.62;95295.72;5021314;28;20249;-72
2023/07/19 02:59:56;;;;;;;13.75;7.05;;;;;;;22.79;74.77;95286.91;5010900;28;20597;-73
2023/07/19 03:02:22;;;;;;;10.68;7.15;;;;;;;22.99;74.12;95290.66;5007974;28;20296;-73
2023/07/19 03:04:48;;;;;;;13.30;7.20;;;;;;;22.93;74.75;95281.06;4991739;28;20226;-73
2023/07/19 03:07:14;;;;;;;11.60;6.90;;;;;;;22.94;74.51;95288.78;5008526;28;20230;-73
2023/07/19 03:09:39;;;;;;;10.30;6.65;;;;;;;22.94;74.32;95290.66;5013640;28;20234;-72
2023/07/19 03:12:05;;;;;;;9.65;6.80;;;;;;;22.91;74.57;95296.53;5000483;28;20223;-72
2023/07/19 03:14:31;;;;;;;10.93;6.80;;;;;;;22.92;74.31;95290.94;5011215;28;20233;-72
2023/07/19 03:16:56;;;;;;;10.95;7.07;;;;;;;22.98;74.41;95291.72;4996062;28;20242;-73
2023/07/19 03:19:22;;;;;;;17.45;7.60;;;;;;;22.99;73.88;95286.13;4995546;28;20235;-73
2023/07/19 03:21:48;;;;;;;12.45;6.95;;;;;;;22.97;73.58;95292.81;5010695;28;20232;-72
2023/07/19 03:24:13;;;;;;;12.88;6.85;;;;;;;23.00;73.29;95292.28;5011012;28;20230;-72
2023/07/19 03:26:39;;;;;;;13.38;6.25;;;;;;;23.01;72.66;95292.00;5018425;28;20233;-79
2023/07/19 03:29:05;;;;;;;13.85;6.68;;;;;;;23.02;72.38;95285.59;4995090;28;20277;-79
2023/07/19 03:31:30;;;;;;;10.27;6.25;;;;;;;22.88;73.64;95284.50;5014364;28;20849;-79
2023/07/19 03:33:56;;;;;;;8.68;6.35;;;;;;;23.01;72.65;95288.53;4996715;28;20231;-79
2023/07/19 03:36:22;;;;;;;10.32;6.25;;;;;;;23.05;72.73;95278.91;5015236;28;20740;-79
2023/07/19 03:38:47;;;;;;;9.82;6.28;;;;;;;22.85;73.58;95270.91;5012259;28;21056;-80
2023/07/19 03:41:13;;;;;;;12.70;6.68;;;;;;;22.68;74.30;95263.97;5016257;28;20230;-79
2023/07/19 03:43:38;;;;;;;10.98;6.15;;;;;;;22.71;74.98;95271.41;5016481;28;20625;-80
2023/07/19 03:46:04;;;;;;;10.02;6.25;;;;;;;22.64;75.43;95265.53;5013554;28;20301;-79
2023/07/19 03:48:30;;;;;;;11.18;6.93;;;;;;;22.75;75.51;95269.03;5012579;28;20503;-79
2023/07/19 03:50:57;;;;;;;12.57;6.90;;;;;;;22.64;76.01;95265.53;5011880;28;20715;-79
2023/07/19 03:53:23;;;;;;;14.95;7.90;;;;;;;22.59;76.99;95248.72;4998463;28;20313;-78
2023/07/19 03:55:55;;;;;;;11.63;7.70;;;;;;;22.66;76.74;95249.28;5010757;28;20815;-79
2023/07/19 03:58:23;;;;;;;11.02;7.57;;;;;;;22.59;77.22;95246.06;4980980;28;20237;-80
2023/07/19 04:00:50;;;;;;;11.32;7.45;;;;;;;22.63;76.56;95253.28;4976121;28;20244;-80
2023/07/19 04:03:15;;;;;;;16.65;7.18;;;;;;;22.85;74.91;95252.22;4994933;28;20239;-80
2023/07/19 04:05:41;;;;;;;13.10;7.38;;;;;;;22.76;75.80;95258.09;5012128;28;20265;-79
2023/07/19 04:08:06;;;;;;;16.63;7.72;;;;;;;22.66;76.29;95260.75;5008249;28;20675;-78
2023/07/19 04:10:31;;;;;;;14.73;7.60;;;;;;;22.74;76.23;95262.88;5011549;28;20239;-80
2023/07/19 04:12:57;;;;;;;13.50;7.32;;;;;;;22.90;75.26;95260.22;5015388;28;20229;-79
2023/07/19 04:15:22;;;;;;;12.75;6.85;;;;;;;22.91;74.19;95264.47;4996996;28;20242;-79
2023/07/19 04:17:48;;;;;;;13.82;7.05;;;;;;;22.98;74.04;95259.66;5026857;28;20253;-78
2023/07/19 04:20:13;;;;;;;11.38;6.80;;;;;;;22.95;73.16;95255.66;5001280;28;20273;-78
2023/07/19 04:22:39;;;;;;;10.75;6.82;;;;;;;23.16;71.81;95243.13;5014887;28;20238;-78
2023/07/19 04:25:05;;;;;;;11.50;6.97;;;;;;;23.18;71.92;95251.66;5004521;28;20238;-79
2023/07/19 04:27:31;;;;;;;12.27;7.13;;;;;;;23.23;71.44;95247.13;5024435;28;21028;-78
2023/07/19 04:29:57;;;;;;;13.65;6.85;;;;;;;23.26;72.01;95253.78;4990720;28;20235;-72
2023/07/19 04:32:22;;;;;;;11.50;7.43;;;;;;;23.24;72.71;95247.88;5006716;28;20594;-72
2023/07/19 04:34:48;;;;;;;15.00;7.00;;;;;;;23.08;73.20;95244.47;4993446;28;20269;-71
2023/07/19 04:37:13;;;;;;;16.50;6.90;;;;;;;23.02;73.91;95252.75;4996803;28;20237;-72
2023/07/19 04:39:39;;;;;;;13.02;6.97;;;;;;;22.95;74.50;95252.22;5016288;28;20238;-71
2023/07/19 04:42:05;;;;;;;13.68;6.68;;;;;;;23.06;74.39;95253.81;4993091;28;20241;-73
2023/07/19 04:44:30;;;;;;;13.77;7.03;;;;;;;23.25;73.50;95247.63;5010580;28;20233;-73
2023/07/19 04:46:56;;;;;;;14.50;7.07;;;;;;;23.29;73.18;95258.56;5014025;28;20609;-72
2023/07/19 04:49:22;;;;;;;13.23;7.50;;;;;;;23.37;72.89;95244.69;4995499;28;20239;-73
2023/07/19 04:51:48;;;;;;;10.93;7.13;;;;;;;23.37;72.60;95244.69;4995508;28;20233;-73
2023/07/19 04:54:13;;;;;;;12.95;7.00;;;;;;;23.40;72.93;95254.84;5010458;28;20621;-73
2023/07/19 04:56:39;;;;;;;14.13;7.07;;;;;;;23.53;72.64;95253.47;4993955;28;20218;-73
2023/07/19 04:59:05;;;;;;;11.40;6.97;;;;;;;23.43;73.11;95249.75;4977580;28;20242;-71
2023/07/19 05:01:30;;;;;;;13.68;7.10;;;;;;;23.46;73.46;95259.09;4994332;28;20617;-73
2023/07/19 05:03:56;;;;;;;12.20;7.32;;;;;;;23.68;72.24;95259.56;4997333;28;20230;-71
2023/07/19 05:06:22;;;;;;;12.50;7.57;;;;;;;23.97;71.36;95263.22;5009387;28;20238;-72
2023/07/19 05:08:47;;;;;;;11.88;7.53;;;;;;;23.97;71.35;95260.53;5007210;28;20235;-72
2023/07/19 05:11:13;;;;;;;13.32;7.43;;;;;;;24.19;69.42;95262.88;5025605;28;20740;-72
2023/07/19 05:13:38;;;;;;;10.88;7.32;;;;;;;24.44;69.00;95265.38;4994508;28;20265;-73
2023/07/19 05:16:04;;;;;;;9.75;7.00;;;;;;;24.88;67.86;95254.66;5010555;28;20230;-73
2023/07/19 05:18:30;;;;;;;15.23;8.13;;;;;;;24.88;66.84;95260.03;4982695;28;20242;-72
2023/07/19 05:20:55;;;;;;;17.98;8.55;;;;;;;24.82;66.77;95250.41;5012177;28;20249;-73
2023/07/19 05:23:21;;;;;;;21.38;9.05;;;;;;;24.75;66.66;95256.06;5013224;28;20773;-73
2023/07/19 05:25:47;;;;;;;18.00;8.88;;;;;;;24.56;67.93;95246.28;5013782;28;20601;-73
2023/07/19 05:28:12;;;;;;;16.15;9.30;;;;;;;24.72;67.09;95245.91;4997931;28;20231;-72
2023/07/19 05:30:38;;;;;;;17.20;8.43;;;;;;;24.48;68.57;95246.91;5004325;28;20311;-72
2023/07/19 05:33:03;;;;;;;14.32;8.57;;;;;;;25.19;65.65;95250.63;5013788;28;20326;-73
2023/07/19 05:35:32;;;;;;;15.13;8.93;;;;;;;24.67;67.76;95243.25;5008385;28;20265;-72
2023/07/19 05:37:57;;;;;;;16.45;8.77;;;;;;;24.69;68.29;95243.78;5002528;28;20841;-72
2023/07/19 05:40:23;;;;;;;17.17;8.63;;;;;;;24.79;67.96;95244.84;4982675;28;20235;-73
2023/07/19 05:42:48;;;;;;;15.88;9.10;;;;;;;25.30;66.60;95244.09;4994574;28;20237;-72
2023/07/19 05:45:14;;;;;;;25.17;9.35;;;;;;;25.16;66.89;95237.78;5009566;28;20231;-72
2023/07/19 05:47:39;;;;;;;18.98;9.18;;;;;;;25.02;66.69;95236.84;5024839;28;20234;-73
2023/07/19 05:50:05;;;;;;;17.20;9.18;;;;;;;24.84;67.76;95239.44;5009969;28;20674;-71
2023/07/19 05:52:31;;;;;;;17.30;8.90;;;;;;;24.95;68.36;95235.59;5011429;28;20227;-72
2023/07/19 05:54:57;;;;;;;18.70;9.25;;;;;;;24.90;67.43;95230.25;4978731;28;20239;-73
2023/07/19 05:57:22;;;;;;;17.30;8.95;;;;;;;24.95;67.57;95233.72;5011249;28;20229;-73
2023/07/19 05:59:48;;;;;;;20.02;8.40;;;;;;;25.03;67.68;95238.44;4998537;28;20257;-72
2023/07/19 06:02:13;;;;;;;19.42;8.85;;;;;;;25.08;68.31;95233.03;4977310;28;20329;-73
2023/07/19 06:04:39;;;;;;;19.38;8.85;;;;;;;25.08;68.46;95232.22;5002713;28;20234;-73
2023/07/19 06:07:04;;;;;;;19.45;8.52;;;;;;;25.27;67.84;95225.09;5013315;28;20227;-72
2023/07/19 06:09:30;;;;;;;18.25;8.15;;;;;;;25.38;67.18;95227.41;5015191;28;20234;-72
2023/07/19 06:11:57;;;;;;;15.55;8.40;;;;;;;25.25;67.91;95222.69;5008524;28;20226;-72
2023/07/19 06:14:23;;;;;;;19.13;8.63;;;;;;;25.24;67.68;95236.38;5009094;28;20262;-72
2023/07/19 06:16:49;;;;;;;23.20;8.85;;;;;;;25.30;67.58;95244.09;5033008;28;20223;-72
2023/07/19 06:19:16;;;;;;;15.70;8.65;;;;;;;25.41;66.94;95239.44;5051650;28;20291;-72
2023/07/19 06:21:42;;;;;;;15.20;8.25;;;;;;;25.51;66.16;95235.88;5013328;28;20240;-71
2023/07/19 06:24:07;;;;;;;14.93;8.05;;;;;;;25.48;67.72;95228.41;5012976;28;20233;-72
2023/07/19 06:26:33;;;;;;;18.30;9.00;;;;;;;25.58;66.92;95225.59;5033977;28;20332;-73
2023/07/19 06:28:58;;;;;;;14.95;8.30;;;;;;;25.53;65.86;95231.78;5035924;28;20233;-73
2023/07/19 06:31:24;;;;;;;19.05;8.85;;;;;;;25.65;65.10;95226.84;5051817;28;21098;-72
2023/07/19 06:33:49;;;;;;;19.33;8.43;;;;;;;25.76;64.93;95228.34;5001409;28;20355;-73
2023/07/19 06:36:15;;;;;;;18.23;8.35;;;;;;;25.77;66.03;95223.78;5005923;28;20297;-73
2023/07/19 06:38:45;;;;;;;16.75;8.43;;;;;;;25.72;66.64;95226.50;4993038;28;20298;-72
2023/07/19 06:41:11;;;;;;;14.18;8.52;;;;;;;25.72;65.45;95223.84;5004471;28;20264;-73
2023/07/19 06:43:36;;;;;;;18.83;8.50;;;;;;;25.78;64.87;95220.00;5046746;28;20264;-74
2023/07/19 06:46:02;;;;;;;16.38;8.40;;;;;;;25.85;63.99;95223.91;5026879;28;20301;-73
2023/07/19 06:48:27;;;;;;;18.00;8.77;;;;;;;25.96;64.22;95227.28;5030921;28;20221;-72
2023/07/19 06:51:02;;;;;;;16.08;8.32;;;;;;;26.01;64.01;95228.00;5048788;28;20244;-74
2023/07/19 06:53:28;;;;;;;22.95;8.90;;;;;;;25.99;63.17;95227.50;5017210;28;20721;-73
2023/07/19 06:55:58;;;;;;;18.17;8.32;;;;;;;26.02;63.85;95215.38;5053705;28;20691;-81
2023/07/19 06:58:23;;;;;;;16.15;8.48;;;;;;;26.09;63.99;95224.69;5056505;28;20236;-81
2023/07/19 07:00:48;;;;;;;16.70;8.65;;;;;;;26.24;63.05;95223.72;5015386;28;20225;-79
2023/07/19 07:03:14;;;;;;;15.73;8.25;;;;;;;26.33;63.61;95232.69;5055898;28;20252;-81
2023/07/19 07:05:43;;;;;;;21.00;8.93;;;;;;;26.28;63.57;95223.91;5018945;28;20240;-79
2023/07/19 07:08:09;;;;;;;14.07;8.90;;;;;;;26.37;63.25;95232.91;5019298;28;20218;-79
2023/07/19 07:10:34;;;;;;;14.55;8.25;;;;;;;26.40;63.49;95222.41;4998925;28;20290;-80
2023/07/19 07:13:00;;;;;;;15.65;8.50;;;;;;;26.48;63.00;95220.94;5000953;28;20229;-78
2023/07/19 07:15:25;;;;;;;17.17;8.57;;;;;;;26.59;63.51;95222.38;5053863;28;20703;-77
2023/07/19 07:17:51;;;;;;;15.70;8.57;;;;;;;26.64;62.24;95220.41;5042053;28;20243;-78
2023/07/19 07:20:17;;;;;;;18.60;8.95;;;;;;;26.72;61.90;95219.72;5022349;28;20294;-78
2023/07/19 07:22:42;;;;;;;16.45;9.10;;;;;;;26.72;61.64;95216.28;5053881;28;20239;-80
2023/07/19 07:25:08;;;;;;;18.65;8.38;;;;;;;26.72;62.49;95219.72;5039798;28;20235;-76
2023/07/19 07:27:35;;;;;;;15.57;8.40;;;;;;;26.80;62.26;95221.00;5023313;28;20241;-78
2023/07/19 07:30:00;;;;;;;17.63;8.15;;;;;;;26.91;62.08;95227.81;5033047;28;20244;-77
2023/07/19 07:32:26;;;;;;;18.58;8.70;;;;;;;26.88;61.17;95228.41;5038618;28;20329;-78
2023/07/19 07:34:51;;;;;;;19.90;8.88;;;;;;;27.03;60.77;95213.91;5055548;28;20278;-79
2023/07/19 07:37:17;;;;;;;19.13;8.25;;;;;;;27.06;61.41;95211.41;5020396;28;20272;-80
2023/07/19 07:39:43;;;;;;;19.30;8.82;;;;;;;27.09;60.81;95207.34;5013659;28;20363;-78
2023/07/19 07:42:09;;;;;;;13.45;8.30;;;;;;;27.23;61.32;95208.16;5043264;28;20296;-79
2023/07/19 07:44:34;;;;;;;24.98;8.60;;;;;;;27.30;62.50;95204.00;5020950;28;20251;-78
2023/07/19 07:47:00;;;;;;;21.83;8.52;;;;;;;27.46;59.57;95206.44;5062675;28;20241;-80
2023/07/19 07:49:25;;;;;;;21.02;8.82;;;;;;;27.36;59.58;95196.63;5069039;28;20773;-77
2023/07/19 07:51:51;;;;;;;18.67;8.65;;;;;;;27.49;57.39;95200.47;5036065;28;20247;-81
2023/07/19 07:54:17;;;;;;;16.02;8.25;;;;;;;27.52;58.62;95184.50;5034206;28;20233;-81
2023/07/19 07:56:43;;;;;;;18.85;8.50;;;;;;;27.59;58.19;95186.78;5037848;28;20260;-82
2023/07/19 07:59:08;;;;;;;14.35;8.15;;;;;;;27.64;57.67;95182.13;5056767;28;20257;-81
2023/07/19 08:01:34;;;;;;;15.70;8.20;;;;;;;27.66;57.52;95179.91;5058821;28;20225;-80
2023/07/19 08:04:00;;;;;;;17.70;8.15;;;;;;;27.72;57.21;95177.94;5023153;28;20221;-81
2023/07/19 08:06:25;;;;;;;20.17;8.88;;;;;;;27.83;57.54;95182.00;4997575;28;20234;-77
2023/07/19 08:08:51;;;;;;;17.13;8.18;;;;;;;27.89;57.48;95178.91;5033466;28;20240;-80
2023/07/19 08:11:17;;;;;;;17.75;8.27;;;;;;;28.01;57.41;95179.19;5033985;28;20976;-79
2023/07/19 08:13:44;;;;;;;15.02;7.68;;;;;;;28.10;56.64;95178.50;5016425;28;20314;-80
2023/07/19 08:16:10;;;;;;;15.35;7.95;;;;;;;28.15;56.76;95171.13;5010317;28;20241;-80
2023/07/19 08:18:36;;;;;;;20.92;8.27;;;;;;;28.20;56.30;95167.50;5026328;28;20237;-80
2023/07/19 08:21:02;;;;;;;14.32;8.07;;;;;;;28.32;55.82;95170.47;5011527;28;20750;-80
2023/07/19 08:23:27;;;;;;;20.42;8.30;;;;;;;28.36;54.01;95168.75;5034258;28;20228;-78
2023/07/19 08:25:56;;;;;;;15.73;8.48;;;;;;;28.37;54.23;95171.16;5036909;28;20229;-78
2023/07/19 08:28:22;;;;;;;15.80;7.60;;;;;;;28.41;54.14;95182.09;5017762;28;20312;-78
2023/07/19 08:30:47;;;;;;;13.88;7.93;;;;;;;28.49;53.60;95168.69;5022530;28;20299;-80
2023/07/19 08:33:13;;;;;;;12.40;7.57;;;;;;;28.62;53.82;95173.25;5006289;28;20242;-79
2023/07/19 08:35:38;;;;;;;16.33;8.18;;;;;;;28.83;52.20;95178.94;5020669;28;20791;-80
2023/07/19 08:38:04;;;;;;;13.65;7.78;;;;;;;28.89;51.93;95176.91;5031238;28;20261;-80
2023/07/19 08:40:32;;;;;;;14.98;7.93;;;;;;;29.00;51.76;95181.75;5044563;28;20245;-79
2023/07/19 08:42:58;;;;;;;14.82;7.50;;;;;;;29.15;52.06;95175.16;5015691;28;20229;-80
2023/07/19 08:45:23;;;;;;;15.77;7.70;;;;;;;29.24;53.14;95163.34;5004846;28;20226;-80
2023/07/19 08:47:48;;;;;;;15.27;7.63;;;;;;;29.23;50.52;95155.56;5014234;28;20225;-80
2023/07/19 08:50:14;;;;;;;13.77;7.75;;;;;;;29.33;50.74;95156.06;5017203;28;20233;-79
2023/07/19 08:52:39;;;;;;;14.52;7.13;;;;;;;29.54;50.23;95158.22;5031693;28;20706;-80
2023/07/19 08:55:06;;;;;;;14.35;7.80;;;;;;;29.54;50.49;95150.94;5033839;28;20237;-79
2023/07/19 08:57:32;;;;;;;18.90;7.57;;;;;;;29.58;52.66;95143.00;5018938;28;20256;-80
2023/07/19 08:59:57;;;;;;;15.40;7.40;;;;;;;29.63;50.47;95134.75;5017241;28;20253;-79
2023/07/19 09:02:23;;;;;;;16.27;7.80;;;;;;;29.63;48.23;95134.75;4993041;28;20255;-79
2023/07/19 09:05:08;;;;;;;13.90;7.32;;;;;;;29.68;50.27;95127.31;5014576;28;20235;-81
2023/07/19 09:07:36;;;;;;;14.82;7.63;;;;;;;29.78;48.52;95129.72;5016533;28;20232;-82
2023/07/19 09:10:03;;;;;;;18.45;7.53;;;;;;;29.91;50.11;95136.91;5021062;28;20262;-81
2023/07/19 09:12:38;;;;;;;11.82;7.05;;;;;;;30.06;48.74;95132.94;5033449;28;20226;-78
2023/07/19 09:15:05;;;;;;;14.23;6.95;;;;;;;30.03;47.62;95138.97;5031255;28;20275;-76
2023/07/19 09:17:35;;;;;;;14.48;6.90;;;;;;;30.06;47.56;95138.34;5024247;28;20255;-82
2023/07/19 09:20:00;;;;;;;14.52;7.43;;;;;;;30.19;47.48;95128.53;5015756;28;20748;-80
2023/07/19 09:22:28;;;;;;;12.02;6.90;;;;;;;30.33;45.56;95129.16;5046225;28;20233;-77
2023/07/19 09:25:01;;;;;;;13.55;7.20;;;;;;;30.27;47.55;95127.72;5051303;28;20314;-79
2023/07/19 09:27:27;;;;;;;12.65;7.47;;;;;;;30.32;47.20;95135.66;5028537;28;20233;-79
2023/07/19 09:29:52;;;;;;;14.40;7.55;;;;;;;30.26;45.80;95128.84;5011840;28;20225;-78
2023/07/19 09:32:18;;;;;;;13.23;7.22;;;;;;;30.36;46.37;95125.81;5020868;28;20776;-81
2023/07/19 09:34:44;;;;;;;13.52;7.20;;;;;;;30.37;46.47;95122.03;5037934;28;20267;-79
2023/07/19 09:37:10;;;;;;;12.15;7.05;;;;;;;30.54;46.67;95128.22;5033703;28;20290;-80
2023/07/19 09:39:36;;;;;;;17.33;7.30;;;;;;;30.67;45.88;95121.03;5026683;28;20237;-79
2023/07/19 09:42:03;;;;;;;19.95;7.43;;;;;;;30.68;45.18;95122.63;5028973;28;20315;-79
2023/07/19 09:44:28;;;;;;;11.43;6.97;;;;;;;30.73;44.59;95122.47;5011302;28;20229;-78
2023/07/19 09:46:57;;;;;;;13.90;7.32;;;;;;;30.79;45.20;95113.03;5010809;28;20225;-79
2023/07/19 09:49:23;;;;;;;12.38;6.88;;;;;;;30.81;46.66;95116.22;5030168;28;20739;-79
2023/07/19 09:51:50;;;;;;;12.75;7.82;;;;;;;30.80;46.05;95111.16;5026613;28;20233;-79
2023/07/19 09:54:15;;;;;;;18.58;7.70;;;;;;;30.95;44.92;95113.38;5030545;28;20887;-80
2023/07/19 09:56:42;;;;;;;15.45;7.40;;;;;;;30.99;44.68;95106.19;5030521;28;20257;-80
2023/07/19 09:59:12;;;;;;;11.52;7.30;;;;;;;31.14;44.75;95092.13;5019549;28;20225;-82
2023/07/19 10:01:37;;;;;;;13.13;7.80;;;;;;;31.20;45.51;95096.25;5020625;28;20232;-80
2023/07/19 10:04:25;;;;;;;14.38;7.40;;;;;;;31.26;46.16;95087.59;5017705;28;20235;-81
2023/07/19 10:07:11;;;;;;;13.20;6.97;;;;;;;31.39;45.11;95087.72;5033653;28;20312;-81
2023/07/19 10:09:40;;;;;;;11.68;7.35;;;;;;;31.38;45.37;95086.13;5015144;28;20232;-81
2023/07/19 10:12:07;;;;;;;14.55;7.40;;;;;;;31.50;46.00;95084.34;5029198;28;20225;-81
2023/07/19 10:14:33;;;;;;;12.35;7.55;;;;;;;31.61;44.73;95080.13;5032796;28;20311;-80
2023/07/19 10:16:59;;;;;;;10.73;7.28;;;;;;;31.59;47.44;95071.56;5023020;28;20321;-76
2023/07/19 10:19:25;;;;;;;14.25;7.28;;;;;;;31.74;44.37;95075.59;5032293;28;20661;-80
2023/07/19 10:22:07;;;;;;;12.05;7.40;;;;;;;31.93;41.24;95076.72;5031950;28;20229;-81
2023/07/19 10:24:35;;;;;;;14.27;7.38;;;;;;;32.12;40.73;95078.22;5017257;28;20373;-80
2023/07/19 10:27:05;;;;;;;14.38;7.00;;;;;;;32.04;40.38;95076.34;5012645;28;20265;-81
2023/07/19 10:29:43;;;;;;;12.40;6.93;;;;;;;31.93;40.36;95068.59;5030797;28;20236;-79
2023/07/19 10:32:08;;;;;;;17.05;6.90;;;;;;;32.07;38.84;95065.66;5007188;28;20282;-81
2023/07/19 10:34:35;;;;;;;12.95;7.38;;;;;;;32.10;38.87;95064.22;5012565;28;20229;-82
2023/07/19 10:37:02;;;;;;;12.18;6.68;;;;;;;32.09;38.58;95074.25;5018620;28;20225;-80
2023/07/19 10:39:28;;;;;;;11.52;6.43;;;;;;;32.36;36.67;95068.25;5003887;28;20216;-81
2023/07/19 10:41:54;;;;;;;9.32;6.25;;;;;;;32.47;36.67;95063.22;4997248;28;20243;-82
2023/07/19 10:44:28;;;;;;;10.50;6.68;;;;;;;32.52;37.06;95057.63;5051297;28;20307;-81
2023/07/19 10:46:54;;;;;;;9.48;6.45;;;;;;;32.47;36.12;95057.81;4997797;28;21060;-82
2023/07/19 10:49:23;;;;;;;15.65;6.80;;;;;;;32.59;36.12;95060.59;5051452;28;20323;-82
2023/07/19 10:51:53;;;;;;;12.40;6.50;;;;;;;32.75;35.87;95058.00;5032896;28;20225;-81
2023/07/19 10:54:18;;;;;;;10.57;6.50;;;;;;;32.78;35.80;95062.78;5029524;28;20225;-79
2023/07/19 10:56:44;;;;;;;16.83;6.53;;;;;;;32.66;36.55;95060.81;5027991;28;20260;-78
2023/07/19 10:59:10;;;;;;;9.30;6.53;;;;;;;32.72;36.58;95059.47;5011924;28;20237;-78
2023/07/19 11:01:35;;;;;;;11.82;6.80;;;;;;;32.75;36.36;95058.81;5029128;28;20234;-80
2023/07/19 11:04:02;;;;;;;10.55;6.75;;;;;;;32.78;37.23;95055.44;5034281;28;20229;-79
2023/07/19 11:06:28;;;;;;;13.20;6.70;;;;;;;32.86;37.05;95057.25;5034137;28;20230;-79
2023/07/19 11:08:53;;;;;;;16.15;7.30;;;;;;;32.77;37.37;95055.78;5035220;28;20239;-83
2023/07/19 11:11:19;;;;;;;12.68;7.07;;;;;;;32.81;37.54;95048.53;5017218;28;20229;-81
2023/07/19 11:13:46;;;;;;;12.65;7.30;;;;;;;32.97;37.85;95046.75;5032769;28;20319;-79
2023/07/19 11:16:11;;;;;;;13.73;6.88;;;;;;;32.91;37.33;95040.75;4999585;28;20236;-81
2023/07/19 11:18:38;;;;;;;11.98;6.70;;;;;;;33.10;35.09;95054.59;5017164;28;20316;-79
2023/07/19 11:21:04;;;;;;;7.65;6.07;;;;;;;33.20;35.36;95048.72;5029658;28;20240;-80
2023/07/19 11:23:29;;;;;;;10.27;6.45;;;;;;;33.21;35.68;95049.50;4992420;28;20230;-79